sensor_id;sensor_type;location;lat;lon;timestamp;P1;durP1;ratioP1;P2;durP2;ratioP2
5543;SDS011;2795;47.652;13.128;2023-06-04T00:00:17;33.20;;;9.70;;
5543;SDS011;2795;47.652;13.128;2023-06-04T00:02:46;15.90;;;7.20;;
5543;SDS011;2795;47.652;13.128;2023-06-04T00:05:14;18.63;;;7.50;;
5543;SDS011;2795;47.652;13.128;2023-06-04T00:07:43;21.10;;;7.30;;
5543;SDS011;2795;47.652;13.128;2023-06-04T00:10:12;17.47;;;7.60;;
5543;SDS011;2795;47.652;13.128;2023-06-04T00:12:40;18.33;;;7.33;;
5543;SDS011;2795;47.652;13.128;2023-06-04T00:15:08;19.30;;;6.77;;
5543;SDS011;2795;47.652;13.128;2023-06-04T00:17:37;18.87;;;6.87;;
5543;SDS011;2795;47.652;13.128;2023-06-04T00:20:07;18.57;;;7.57;;
5543;SDS011;2795;47.652;13.128;2023-06-04T00:22:35;20.47;;;8.03;;
5543;SDS011;2795;47.652;13.128;2023-06-04T00:25:03;16.77;;;7.40;;
5543;SDS011;2795;47.652;13.128;2023-06-04T00:27:32;19.83;;;7.57;;
5543;SDS011;2795;47.652;13.128;2023-06-04T00:30:00;19.60;;;7.43;;
5543;SDS011;2795;47.652;13.128;2023-06-04T00:32:29;20.10;;;7.80;;
5543;SDS011;2795;47.652;13.128;2023-06-04T00:34:57;22.53;;;7.50;;
5543;SDS011;2795;47.652;13.128;2023-06-04T00:37:24;22.10;;;8.07;;
5543;SDS011;2795;47.652;13.128;2023-06-04T00:39:54;20.33;;;7.43;;
5543;SDS011;2795;47.652;13.128;2023-06-04T00:42:23;22.33;;;7.70;;
5543;SDS011;2795;47.652;13.128;2023-06-04T00:44:51;35.73;;;8.53;;
5543;SDS011;2795;47.652;13.128;2023-06-04T00:47:20;16.90;;;6.77;;
5543;SDS011;2795;47.652;13.128;2023-06-04T00:49:50;21.80;;;7.13;;
5543;SDS011;2795;47.652;13.128;2023-06-04T00:52:20;21.27;;;7.70;;
5543;SDS011;2795;47.652;13.128;2023-06-04T00:54:50;16.83;;;7.30;;
5543;SDS011;2795;47.652;13.128;2023-06-04T00:57:22;19.80;;;7.07;;
5543;SDS011;2795;47.652;13.128;2023-06-04T00:59:52;25.50;;;8.57;;
5543;SDS011;2795;47.652;13.128;2023-06-04T01:02:21;16.87;;;7.67;;
5543;SDS011;2795;47.652;13.128;2023-06-04T01:05:00;19.40;;;7.10;;
5543;SDS011;2795;47.652;13.128;2023-06-04T01:07:37;22.90;;;7.30;;
5543;SDS011;2795;47.652;13.128;2023-06-04T01:10:07;20.40;;;8.20;;
5543;SDS011;2795;47.652;13.128;2023-06-04T01:12:39;23.80;;;8.20;;
5543;SDS011;2795;47.652;13.128;2023-06-04T01:15:08;23.00;;;8.40;;
5543;SDS011;2795;47.652;13.128;2023-06-04T01:17:41;25.17;;;8.10;;
5543;SDS011;2795;47.652;13.128;2023-06-04T01:20:34;19.47;;;6.93;;
5543;SDS011;2795;47.652;13.128;2023-06-04T01:25:51;22.73;;;8.03;;
5543;SDS011;2795;47.652;13.128;2023-06-04T01:28:22;24.47;;;7.90;;
5543;SDS011;2795;47.652;13.128;2023-06-04T01:30:53;25.87;;;8.30;;
5543;SDS011;2795;47.652;13.128;2023-06-04T01:33:25;14.43;;;7.20;;
5543;SDS011;2795;47.652;13.128;2023-06-04T01:35:53;28.70;;;8.50;;
5543;SDS011;2795;47.652;13.128;2023-06-04T01:38:22;21.13;;;7.53;;
5543;SDS011;2795;47.652;13.128;2023-06-04T01:40:52;21.73;;;7.63;;
5543;SDS011;2795;47.652;13.128;2023-06-04T01:43:24;20.57;;;7.10;;
5543;SDS011;2795;47.652;13.128;2023-06-04T01:45:52;18.77;;;7.10;;
5543;SDS011;2795;47.652;13.128;2023-06-04T01:48:22;25.27;;;7.80;;
5543;SDS011;2795;47.652;13.128;2023-06-04T01:50:51;15.93;;;6.90;;
5543;SDS011;2795;47.652;13.128;2023-06-04T01:53:20;24.90;;;8.10;;
5543;SDS011;2795;47.652;13.128;2023-06-04T01:55:50;22.70;;;7.77;;
5543;SDS011;2795;47.652;13.128;2023-06-04T01:58:19;17.10;;;7.10;;
5543;SDS011;2795;47.652;13.128;2023-06-04T02:00:56;22.83;;;7.53;;
5543;SDS011;2795;47.652;13.128;2023-06-04T02:03:28;18.83;;;7.23;;
5543;SDS011;2795;47.652;13.128;2023-06-04T02:06:04;19.33;;;6.80;;
5543;SDS011;2795;47.652;13.128;2023-06-04T02:08:37;22.80;;;7.83;;
5543;SDS011;2795;47.652;13.128;2023-06-04T02:11:09;16.93;;;6.67;;
5543;SDS011;2795;47.652;13.128;2023-06-04T02:13:39;16.40;;;7.10;;
5543;SDS011;2795;47.652;13.128;2023-06-04T02:16:08;27.93;;;7.43;;
5543;SDS011;2795;47.652;13.128;2023-06-04T02:18:40;11.27;;;6.30;;
5543;SDS011;2795;47.652;13.128;2023-06-04T02:21:10;15.10;;;6.90;;
5543;SDS011;2795;47.652;13.128;2023-06-04T02:23:40;25.07;;;7.50;;
5543;SDS011;2795;47.652;13.128;2023-06-04T02:26:11;21.80;;;7.67;;
5543;SDS011;2795;47.652;13.128;2023-06-04T02:28:41;15.17;;;6.50;;
5543;SDS011;2795;47.652;13.128;2023-06-04T02:31:09;19.63;;;6.73;;
5543;SDS011;2795;47.652;13.128;2023-06-04T02:33:39;17.63;;;7.37;;
5543;SDS011;2795;47.652;13.128;2023-06-04T02:36:08;24.43;;;8.30;;
5543;SDS011;2795;47.652;13.128;2023-06-04T02:38:39;15.97;;;7.07;;
5543;SDS011;2795;47.652;13.128;2023-06-04T02:41:09;14.93;;;6.40;;
5543;SDS011;2795;47.652;13.128;2023-06-04T02:43:38;17.13;;;7.03;;
5543;SDS011;2795;47.652;13.128;2023-06-04T02:46:08;28.67;;;7.73;;
5543;SDS011;2795;47.652;13.128;2023-06-04T02:48:39;16.20;;;7.20;;
5543;SDS011;2795;47.652;13.128;2023-06-04T02:51:11;21.90;;;7.43;;
5543;SDS011;2795;47.652;13.128;2023-06-04T02:53:41;14.90;;;7.03;;
5543;SDS011;2795;47.652;13.128;2023-06-04T02:56:11;22.50;;;7.30;;
5543;SDS011;2795;47.652;13.128;2023-06-04T02:58:53;16.53;;;7.20;;
5543;SDS011;2795;47.652;13.128;2023-06-04T03:01:23;24.10;;;7.43;;
5543;SDS011;2795;47.652;13.128;2023-06-04T03:03:54;22.10;;;7.67;;
5543;SDS011;2795;47.652;13.128;2023-06-04T03:06:24;27.77;;;8.03;;
5543;SDS011;2795;47.652;13.128;2023-06-04T03:08:54;26.00;;;8.00;;
5543;SDS011;2795;47.652;13.128;2023-06-04T03:11:27;22.90;;;8.47;;
5543;SDS011;2795;47.652;13.128;2023-06-04T03:13:57;25.10;;;7.67;;
5543;SDS011;2795;47.652;13.128;2023-06-04T03:16:26;21.47;;;6.97;;
5543;SDS011;2795;47.652;13.128;2023-06-04T03:18:58;24.97;;;7.47;;
5543;SDS011;2795;47.652;13.128;2023-06-04T03:21:25;23.73;;;7.57;;
5543;SDS011;2795;47.652;13.128;2023-06-04T03:23:57;17.27;;;6.80;;
5543;SDS011;2795;47.652;13.128;2023-06-04T03:26:26;14.67;;;7.00;;
5543;SDS011;2795;47.652;13.128;2023-06-04T03:28:55;23.73;;;7.77;;
5543;SDS011;2795;47.652;13.128;2023-06-04T03:31:25;26.30;;;8.00;;
5543;SDS011;2795;47.652;13.128;2023-06-04T03:33:55;22.60;;;7.70;;
5543;SDS011;2795;47.652;13.128;2023-06-04T03:36:23;19.90;;;7.33;;
5543;SDS011;2795;47.652;13.128;2023-06-04T03:38:59;18.13;;;7.50;;
5543;SDS011;2795;47.652;13.128;2023-06-04T03:41:29;17.30;;;7.03;;
5543;SDS011;2795;47.652;13.128;2023-06-04T03:43:58;19.97;;;7.33;;
5543;SDS011;2795;47.652;13.128;2023-06-04T03:46:27;18.60;;;6.90;;
5543;SDS011;2795;47.652;13.128;2023-06-04T03:49:02;23.53;;;7.60;;
5543;SDS011;2795;47.652;13.128;2023-06-04T03:51:31;16.07;;;7.40;;
5543;SDS011;2795;47.652;13.128;2023-06-04T03:54:01;16.57;;;7.03;;
5543;SDS011;2795;47.652;13.128;2023-06-04T03:56:31;20.20;;;6.97;;
5543;SDS011;2795;47.652;13.128;2023-06-04T03:58:59;21.20;;;7.30;;
5543;SDS011;2795;47.652;13.128;2023-06-04T04:01:27;24.33;;;8.20;;
5543;SDS011;2795;47.652;13.128;2023-06-04T04:03:58;23.90;;;7.70;;
5543;SDS011;2795;47.652;13.128;2023-06-04T04:06:27;21.47;;;7.33;;
5543;SDS011;2795;47.652;13.128;2023-06-04T04:08:55;26.20;;;7.90;;
5543;SDS011;2795;47.652;13.128;2023-06-04T04:11:24;20.63;;;7.63;;
5543;SDS011;2795;47.652;13.128;2023-06-04T04:13:54;25.23;;;8.07;;
5543;SDS011;2795;47.652;13.128;2023-06-04T04:16:25;15.80;;;6.77;;
5543;SDS011;2795;47.652;13.128;2023-06-04T04:18:56;19.83;;;7.53;;
5543;SDS011;2795;47.652;13.128;2023-06-04T04:21:26;26.47;;;7.87;;
5543;SDS011;2795;47.652;13.128;2023-06-04T04:23:56;18.60;;;7.43;;
5543;SDS011;2795;47.652;13.128;2023-06-04T04:26:28;24.43;;;8.23;;
5543;SDS011;2795;47.652;13.128;2023-06-04T04:28:58;21.13;;;7.70;;
5543;SDS011;2795;47.652;13.128;2023-06-04T04:31:30;21.80;;;7.83;;
5543;SDS011;2795;47.652;13.128;2023-06-04T04:33:59;35.97;;;8.37;;
5543;SDS011;2795;47.652;13.128;2023-06-04T04:36:26;23.37;;;7.70;;
5543;SDS011;2795;47.652;13.128;2023-06-04T04:38:54;23.10;;;8.43;;
5543;SDS011;2795;47.652;13.128;2023-06-04T04:41:22;14.97;;;7.20;;
5543;SDS011;2795;47.652;13.128;2023-06-04T04:43:52;21.90;;;6.97;;
5543;SDS011;2795;47.652;13.128;2023-06-04T04:46:20;18.37;;;7.57;;
5543;SDS011;2795;47.652;13.128;2023-06-04T04:48:49;17.90;;;7.67;;
5543;SDS011;2795;47.652;13.128;2023-06-04T04:51:16;13.33;;;6.43;;
5543;SDS011;2795;47.652;13.128;2023-06-04T04:53:44;18.57;;;7.80;;
5543;SDS011;2795;47.652;13.128;2023-06-04T04:56:11;19.03;;;7.90;;
5543;SDS011;2795;47.652;13.128;2023-06-04T04:58:40;20.73;;;8.13;;
5543;SDS011;2795;47.652;13.128;2023-06-04T05:01:09;14.37;;;7.60;;
5543;SDS011;2795;47.652;13.128;2023-06-04T05:03:38;18.27;;;8.20;;
5543;SDS011;2795;47.652;13.128;2023-06-04T05:06:05;22.40;;;8.20;;
5543;SDS011;2795;47.652;13.128;2023-06-04T05:08:32;13.30;;;7.20;;
5543;SDS011;2795;47.652;13.128;2023-06-04T05:10:59;19.03;;;7.47;;
5543;SDS011;2795;47.652;13.128;2023-06-04T05:13:27;23.53;;;8.13;;
5543;SDS011;2795;47.652;13.128;2023-06-04T05:15:54;21.93;;;7.77;;
5543;SDS011;2795;47.652;13.128;2023-06-04T05:18:21;21.27;;;8.40;;
5543;SDS011;2795;47.652;13.128;2023-06-04T05:20:48;15.33;;;7.67;;
5543;SDS011;2795;47.652;13.128;2023-06-04T05:23:15;19.67;;;8.03;;
5543;SDS011;2795;47.652;13.128;2023-06-04T05:25:42;22.70;;;8.50;;
5543;SDS011;2795;47.652;13.128;2023-06-04T05:28:09;20.73;;;8.13;;
5543;SDS011;2795;47.652;13.128;2023-06-04T05:30:36;31.40;;;10.80;;
5543;SDS011;2795;47.652;13.128;2023-06-04T05:33:08;16.03;;;7.73;;
5543;SDS011;2795;47.652;13.128;2023-06-04T05:35:48;21.43;;;8.70;;
5543;SDS011;2795;47.652;13.128;2023-06-04T05:38:16;19.20;;;8.80;;
5543;SDS011;2795;47.652;13.128;2023-06-04T05:40:45;26.13;;;8.70;;
5543;SDS011;2795;47.652;13.128;2023-06-04T05:43:13;16.10;;;7.60;;
5543;SDS011;2795;47.652;13.128;2023-06-04T05:45:40;17.67;;;8.13;;
5543;SDS011;2795;47.652;13.128;2023-06-04T05:48:07;17.70;;;8.10;;
5543;SDS011;2795;47.652;13.128;2023-06-04T05:50:33;24.40;;;9.67;;
5543;SDS011;2795;47.652;13.128;2023-06-04T05:53:00;28.53;;;10.93;;
5543;SDS011;2795;47.652;13.128;2023-06-04T05:55:27;21.17;;;8.47;;
5543;SDS011;2795;47.652;13.128;2023-06-04T05:57:56;24.90;;;8.97;;
5543;SDS011;2795;47.652;13.128;2023-06-04T06:00:22;20.17;;;8.13;;
5543;SDS011;2795;47.652;13.128;2023-06-04T06:02:50;17.47;;;8.30;;
5543;SDS011;2795;47.652;13.128;2023-06-04T06:05:19;18.63;;;8.80;;
5543;SDS011;2795;47.652;13.128;2023-06-04T06:07:47;20.40;;;9.17;;
5543;SDS011;2795;47.652;13.128;2023-06-04T06:10:16;23.00;;;8.43;;
5543;SDS011;2795;47.652;13.128;2023-06-04T06:12:43;22.43;;;8.60;;
5543;SDS011;2795;47.652;13.128;2023-06-04T06:15:10;17.07;;;8.30;;
5543;SDS011;2795;47.652;13.128;2023-06-04T06:17:39;22.10;;;9.20;;
5543;SDS011;2795;47.652;13.128;2023-06-04T06:20:09;17.70;;;8.10;;
5543;SDS011;2795;47.652;13.128;2023-06-04T06:22:36;14.93;;;7.40;;
5543;SDS011;2795;47.652;13.128;2023-06-04T06:25:03;27.40;;;11.07;;
5543;SDS011;2795;47.652;13.128;2023-06-04T06:27:32;26.23;;;9.70;;
5543;SDS011;2795;47.652;13.128;2023-06-04T06:29:58;27.27;;;11.27;;
5543;SDS011;2795;47.652;13.128;2023-06-04T06:32:25;30.17;;;12.30;;
5543;SDS011;2795;47.652;13.128;2023-06-04T06:34:53;23.30;;;10.33;;
5543;SDS011;2795;47.652;13.128;2023-06-04T06:37:20;20.40;;;9.50;;
5543;SDS011;2795;47.652;13.128;2023-06-04T06:39:47;17.27;;;8.77;;
5543;SDS011;2795;47.652;13.128;2023-06-04T06:42:13;15.93;;;9.33;;
5543;SDS011;2795;47.652;13.128;2023-06-04T06:44:40;21.23;;;9.30;;
5543;SDS011;2795;47.652;13.128;2023-06-04T06:47:07;18.50;;;8.40;;
5543;SDS011;2795;47.652;13.128;2023-06-04T06:49:34;16.77;;;8.83;;
5543;SDS011;2795;47.652;13.128;2023-06-04T06:52:01;17.70;;;8.80;;
5543;SDS011;2795;47.652;13.128;2023-06-04T06:54:28;18.57;;;9.33;;
5543;SDS011;2795;47.652;13.128;2023-06-04T06:56:56;18.90;;;9.40;;
5543;SDS011;2795;47.652;13.128;2023-06-04T06:59:24;13.37;;;8.20;;
5543;SDS011;2795;47.652;13.128;2023-06-04T07:01:52;18.20;;;9.07;;
5543;SDS011;2795;47.652;13.128;2023-06-04T07:04:22;17.83;;;8.23;;
5543;SDS011;2795;47.652;13.128;2023-06-04T07:06:50;12.80;;;7.83;;
5543;SDS011;2795;47.652;13.128;2023-06-04T07:09:18;15.40;;;8.40;;
5543;SDS011;2795;47.652;13.128;2023-06-04T07:11:47;19.20;;;7.93;;
5543;SDS011;2795;47.652;13.128;2023-06-04T07:14:17;13.57;;;8.10;;
5543;SDS011;2795;47.652;13.128;2023-06-04T07:16:47;13.63;;;8.20;;
5543;SDS011;2795;47.652;13.128;2023-06-04T07:19:16;11.63;;;8.03;;
5543;SDS011;2795;47.652;13.128;2023-06-04T07:21:43;12.33;;;7.67;;
5543;SDS011;2795;47.652;13.128;2023-06-04T07:24:12;15.40;;;8.10;;
5543;SDS011;2795;47.652;13.128;2023-06-04T07:26:38;13.27;;;8.17;;
5543;SDS011;2795;47.652;13.128;2023-06-04T07:29:06;17.10;;;8.57;;
5543;SDS011;2795;47.652;13.128;2023-06-04T07:31:34;16.03;;;8.73;;
5543;SDS011;2795;47.652;13.128;2023-06-04T07:34:01;14.67;;;7.97;;
5543;SDS011;2795;47.652;13.128;2023-06-04T07:36:28;17.93;;;8.50;;
5543;SDS011;2795;47.652;13.128;2023-06-04T07:38:55;15.23;;;7.50;;
5543;SDS011;2795;47.652;13.128;2023-06-04T07:41:22;17.33;;;8.27;;
5543;SDS011;2795;47.652;13.128;2023-06-04T07:43:49;17.40;;;7.27;;
5543;SDS011;2795;47.652;13.128;2023-06-04T07:46:15;11.73;;;6.93;;
5543;SDS011;2795;47.652;13.128;2023-06-04T07:48:45;16.07;;;8.27;;
5543;SDS011;2795;47.652;13.128;2023-06-04T07:51:12;11.60;;;7.00;;
5543;SDS011;2795;47.652;13.128;2023-06-04T07:53:39;17.77;;;8.23;;
5543;SDS011;2795;47.652;13.128;2023-06-04T07:56:07;11.57;;;8.03;;
5543;SDS011;2795;47.652;13.128;2023-06-04T07:58:34;13.57;;;7.47;;
5543;SDS011;2795;47.652;13.128;2023-06-04T08:01:00;19.50;;;7.97;;
5543;SDS011;2795;47.652;13.128;2023-06-04T08:03:27;13.10;;;7.43;;
5543;SDS011;2795;47.652;13.128;2023-06-04T08:05:54;15.80;;;7.63;;
5543;SDS011;2795;47.652;13.128;2023-06-04T08:08:21;16.80;;;8.30;;
5543;SDS011;2795;47.652;13.128;2023-06-04T08:10:50;11.70;;;7.47;;
5543;SDS011;2795;47.652;13.128;2023-06-04T08:13:19;18.37;;;7.93;;
5543;SDS011;2795;47.652;13.128;2023-06-04T08:15:47;15.00;;;7.20;;
5543;SDS011;2795;47.652;13.128;2023-06-04T08:18:14;11.90;;;6.77;;
5543;SDS011;2795;47.652;13.128;2023-06-04T08:20:42;12.63;;;7.03;;
5543;SDS011;2795;47.652;13.128;2023-06-04T08:23:10;15.47;;;7.57;;
5543;SDS011;2795;47.652;13.128;2023-06-04T08:25:37;10.63;;;6.50;;
5543;SDS011;2795;47.652;13.128;2023-06-04T08:28:04;11.10;;;6.80;;
5543;SDS011;2795;47.652;13.128;2023-06-04T08:30:33;21.93;;;8.13;;
5543;SDS011;2795;47.652;13.128;2023-06-04T08:33:03;13.07;;;7.30;;
5543;SDS011;2795;47.652;13.128;2023-06-04T08:35:36;15.17;;;7.00;;
5543;SDS011;2795;47.652;13.128;2023-06-04T08:38:03;13.90;;;6.93;;
5543;SDS011;2795;47.652;13.128;2023-06-04T08:40:31;11.83;;;6.50;;
5543;SDS011;2795;47.652;13.128;2023-06-04T08:43:00;16.43;;;7.80;;
5543;SDS011;2795;47.652;13.128;2023-06-04T08:45:29;26.53;;;9.13;;
5543;SDS011;2795;47.652;13.128;2023-06-04T08:47:59;14.13;;;7.30;;
5543;SDS011;2795;47.652;13.128;2023-06-04T08:50:27;12.37;;;6.50;;
5543;SDS011;2795;47.652;13.128;2023-06-04T08:52:55;21.83;;;7.50;;
5543;SDS011;2795;47.652;13.128;2023-06-04T08:55:23;21.53;;;8.77;;
5543;SDS011;2795;47.652;13.128;2023-06-04T08:57:50;17.97;;;7.40;;
5543;SDS011;2795;47.652;13.128;2023-06-04T09:00:18;21.47;;;8.00;;
5543;SDS011;2795;47.652;13.128;2023-06-04T09:02:46;13.60;;;6.00;;
5543;SDS011;2795;47.652;13.128;2023-06-04T09:05:19;16.40;;;8.40;;
5543;SDS011;2795;47.652;13.128;2023-06-04T09:07:47;14.43;;;7.57;;
5543;SDS011;2795;47.652;13.128;2023-06-04T09:10:18;18.63;;;7.90;;
5543;SDS011;2795;47.652;13.128;2023-06-04T09:12:46;13.60;;;8.07;;
5543;SDS011;2795;47.652;13.128;2023-06-04T09:15:14;11.90;;;7.70;;
5543;SDS011;2795;47.652;13.128;2023-06-04T09:17:42;15.40;;;7.50;;
5543;SDS011;2795;47.652;13.128;2023-06-04T09:20:23;12.07;;;7.17;;
5543;SDS011;2795;47.652;13.128;2023-06-04T09:22:54;22.27;;;8.57;;
5543;SDS011;2795;47.652;13.128;2023-06-04T09:25:25;15.33;;;7.70;;
5543;SDS011;2795;47.652;13.128;2023-06-04T09:27:54;17.93;;;8.00;;
5543;SDS011;2795;47.652;13.128;2023-06-04T09:30:26;14.23;;;7.40;;
5543;SDS011;2795;47.652;13.128;2023-06-04T09:32:54;20.90;;;7.70;;
5543;SDS011;2795;47.652;13.128;2023-06-04T09:35:23;15.23;;;7.33;;
5543;SDS011;2795;47.652;13.128;2023-06-04T09:37:54;11.50;;;7.00;;
5543;SDS011;2795;47.652;13.128;2023-06-04T09:40:24;18.60;;;7.67;;
5543;SDS011;2795;47.652;13.128;2023-06-04T09:42:53;14.50;;;7.33;;
5543;SDS011;2795;47.652;13.128;2023-06-04T09:45:27;14.13;;;7.50;;
5543;SDS011;2795;47.652;13.128;2023-06-04T09:48:00;18.67;;;7.97;;
5543;SDS011;2795;47.652;13.128;2023-06-04T09:50:35;11.80;;;6.97;;
5543;SDS011;2795;47.652;13.128;2023-06-04T09:53:12;11.40;;;6.13;;
5543;SDS011;2795;47.652;13.128;2023-06-04T09:55:43;10.07;;;6.20;;
5543;SDS011;2795;47.652;13.128;2023-06-04T09:58:11;11.43;;;6.33;;
5543;SDS011;2795;47.652;13.128;2023-06-04T10:00:39;15.70;;;6.40;;
5543;SDS011;2795;47.652;13.128;2023-06-04T10:03:09;9.00;;;6.00;;
5543;SDS011;2795;47.652;13.128;2023-06-04T10:05:38;18.33;;;6.60;;
5543;SDS011;2795;47.652;13.128;2023-06-04T10:08:06;12.37;;;6.03;;
5543;SDS011;2795;47.652;13.128;2023-06-04T10:10:35;9.80;;;5.70;;
5543;SDS011;2795;47.652;13.128;2023-06-04T10:13:09;10.70;;;6.07;;
5543;SDS011;2795;47.652;13.128;2023-06-04T10:15:44;9.97;;;6.23;;
5543;SDS011;2795;47.652;13.128;2023-06-04T10:18:13;10.63;;;5.47;;
5543;SDS011;2795;47.652;13.128;2023-06-04T10:20:42;11.70;;;5.60;;
5543;SDS011;2795;47.652;13.128;2023-06-04T10:23:13;12.70;;;5.97;;
5543;SDS011;2795;47.652;13.128;2023-06-04T10:25:41;17.43;;;6.57;;
5543;SDS011;2795;47.652;13.128;2023-06-04T10:28:09;8.97;;;5.50;;
5543;SDS011;2795;47.652;13.128;2023-06-04T10:30:36;10.13;;;5.50;;
5543;SDS011;2795;47.652;13.128;2023-06-04T10:33:03;8.90;;;5.23;;
5543;SDS011;2795;47.652;13.128;2023-06-04T10:35:35;10.10;;;5.20;;
5543;SDS011;2795;47.652;13.128;2023-06-04T10:40:34;17.60;;;6.40;;
5543;SDS011;2795;47.652;13.128;2023-06-04T10:43:09;13.20;;;5.60;;
5543;SDS011;2795;47.652;13.128;2023-06-04T10:45:38;7.17;;;5.40;;
5543;SDS011;2795;47.652;13.128;2023-06-04T10:48:06;9.93;;;5.53;;
5543;SDS011;2795;47.652;13.128;2023-06-04T10:50:51;8.83;;;5.40;;
5543;SDS011;2795;47.652;13.128;2023-06-04T10:53:20;12.23;;;5.63;;
5543;SDS011;2795;47.652;13.128;2023-06-04T10:55:47;13.67;;;6.33;;
5543;SDS011;2795;47.652;13.128;2023-06-04T10:58:15;8.53;;;5.37;;
5543;SDS011;2795;47.652;13.128;2023-06-04T11:00:43;7.50;;;5.20;;
5543;SDS011;2795;47.652;13.128;2023-06-04T11:03:16;13.53;;;6.23;;
5543;SDS011;2795;47.652;13.128;2023-06-04T11:05:45;8.80;;;5.33;;
5543;SDS011;2795;47.652;13.128;2023-06-04T11:08:13;13.83;;;6.00;;
5543;SDS011;2795;47.652;13.128;2023-06-04T11:10:42;11.47;;;5.40;;
5543;SDS011;2795;47.652;13.128;2023-06-04T11:13:11;18.87;;;6.43;;
5543;SDS011;2795;47.652;13.128;2023-06-04T11:15:44;10.50;;;5.90;;
5543;SDS011;2795;47.652;13.128;2023-06-04T11:18:13;16.03;;;5.83;;
5543;SDS011;2795;47.652;13.128;2023-06-04T11:20:43;9.60;;;5.60;;
5543;SDS011;2795;47.652;13.128;2023-06-04T11:23:12;7.20;;;5.47;;
5543;SDS011;2795;47.652;13.128;2023-06-04T11:25:40;9.70;;;5.57;;
5543;SDS011;2795;47.652;13.128;2023-06-04T11:28:14;9.40;;;6.30;;
5543;SDS011;2795;47.652;13.128;2023-06-04T11:30:43;8.77;;;5.53;;
5543;SDS011;2795;47.652;13.128;2023-06-04T11:33:10;8.33;;;5.87;;
5543;SDS011;2795;47.652;13.128;2023-06-04T11:35:41;11.20;;;6.27;;
5543;SDS011;2795;47.652;13.128;2023-06-04T11:38:09;8.13;;;5.10;;
5543;SDS011;2795;47.652;13.128;2023-06-04T11:40:37;9.43;;;5.60;;
5543;SDS011;2795;47.652;13.128;2023-06-04T11:43:05;10.30;;;5.97;;
5543;SDS011;2795;47.652;13.128;2023-06-04T11:45:32;14.53;;;6.60;;
5543;SDS011;2795;47.652;13.128;2023-06-04T11:47:59;10.10;;;5.70;;
5543;SDS011;2795;47.652;13.128;2023-06-04T11:50:27;8.93;;;5.50;;
5543;SDS011;2795;47.652;13.128;2023-06-04T11:52:54;18.07;;;6.87;;
5543;SDS011;2795;47.652;13.128;2023-06-04T11:55:21;10.63;;;5.47;;
5543;SDS011;2795;47.652;13.128;2023-06-04T11:57:49;9.13;;;5.53;;
5543;SDS011;2795;47.652;13.128;2023-06-04T12:00:17;8.70;;;5.40;;
5543;SDS011;2795;47.652;13.128;2023-06-04T12:02:49;11.37;;;5.20;;
5543;SDS011;2795;47.652;13.128;2023-06-04T12:05:22;8.07;;;5.90;;
5543;SDS011;2795;47.652;13.128;2023-06-04T12:07:50;9.60;;;5.80;;
5543;SDS011;2795;47.652;13.128;2023-06-04T12:10:18;13.73;;;6.57;;
5543;SDS011;2795;47.652;13.128;2023-06-04T12:12:45;8.10;;;5.20;;
5543;SDS011;2795;47.652;13.128;2023-06-04T12:15:18;9.57;;;5.57;;
5543;SDS011;2795;47.652;13.128;2023-06-04T12:17:53;13.27;;;5.97;;
5543;SDS011;2795;47.652;13.128;2023-06-04T12:23:02;14.00;;;7.13;;
5543;SDS011;2795;47.652;13.128;2023-06-04T12:25:30;12.70;;;6.20;;
5543;SDS011;2795;47.652;13.128;2023-06-04T12:27:57;16.00;;;7.10;;
5543;SDS011;2795;47.652;13.128;2023-06-04T12:30:37;13.03;;;6.20;;
5543;SDS011;2795;47.652;13.128;2023-06-04T12:33:05;13.67;;;6.40;;
5543;SDS011;2795;47.652;13.128;2023-06-04T12:35:33;14.43;;;6.80;;
5543;SDS011;2795;47.652;13.128;2023-06-04T12:38:02;12.83;;;6.27;;
5543;SDS011;2795;47.652;13.128;2023-06-04T12:40:32;13.63;;;6.10;;
5543;SDS011;2795;47.652;13.128;2023-06-04T12:42:59;20.20;;;6.60;;
5543;SDS011;2795;47.652;13.128;2023-06-04T12:45:27;14.40;;;6.10;;
5543;SDS011;2795;47.652;13.128;2023-06-04T12:47:54;13.73;;;6.63;;
5543;SDS011;2795;47.652;13.128;2023-06-04T12:50:22;34.00;;;7.60;;
5543;SDS011;2795;47.652;13.128;2023-06-04T12:52:49;16.07;;;6.87;;
5543;SDS011;2795;47.652;13.128;2023-06-04T12:55:16;23.57;;;7.80;;
5543;SDS011;2795;47.652;13.128;2023-06-04T12:57:43;10.30;;;5.97;;
5543;SDS011;2795;47.652;13.128;2023-06-04T13:00:12;10.10;;;5.70;;
5543;SDS011;2795;47.652;13.128;2023-06-04T13:02:42;13.17;;;6.10;;
5543;SDS011;2795;47.652;13.128;2023-06-04T13:05:09;15.37;;;6.63;;
5543;SDS011;2795;47.652;13.128;2023-06-04T13:07:37;14.73;;;6.33;;
5543;SDS011;2795;47.652;13.128;2023-06-04T13:10:04;9.60;;;5.97;;
5543;SDS011;2795;47.652;13.128;2023-06-04T13:12:32;10.17;;;5.73;;
5543;SDS011;2795;47.652;13.128;2023-06-04T13:15:00;12.93;;;5.93;;
5543;SDS011;2795;47.652;13.128;2023-06-04T13:17:29;13.80;;;6.23;;
5543;SDS011;2795;47.652;13.128;2023-06-04T13:19:56;10.87;;;5.90;;
5543;SDS011;2795;47.652;13.128;2023-06-04T13:22:24;11.53;;;6.33;;
5543;SDS011;2795;47.652;13.128;2023-06-04T13:24:51;18.73;;;7.40;;
5543;SDS011;2795;47.652;13.128;2023-06-04T13:27:18;14.50;;;6.33;;
5543;SDS011;2795;47.652;13.128;2023-06-04T13:29:47;14.73;;;6.50;;
5543;SDS011;2795;47.652;13.128;2023-06-04T13:32:15;12.17;;;6.37;;
5543;SDS011;2795;47.652;13.128;2023-06-04T13:34:44;13.30;;;6.10;;
5543;SDS011;2795;47.652;13.128;2023-06-04T13:37:15;8.57;;;5.43;;
5543;SDS011;2795;47.652;13.128;2023-06-04T13:39:43;9.23;;;5.97;;
5543;SDS011;2795;47.652;13.128;2023-06-04T13:42:10;12.87;;;6.50;;
5543;SDS011;2795;47.652;13.128;2023-06-04T13:44:37;17.60;;;6.50;;
5543;SDS011;2795;47.652;13.128;2023-06-04T13:47:04;13.97;;;6.47;;
5543;SDS011;2795;47.652;13.128;2023-06-04T13:49:32;14.33;;;6.20;;
5543;SDS011;2795;47.652;13.128;2023-06-04T13:52:00;16.00;;;6.73;;
5543;SDS011;2795;47.652;13.128;2023-06-04T13:54:28;20.00;;;7.40;;
5543;SDS011;2795;47.652;13.128;2023-06-04T13:56:54;19.53;;;6.60;;
5543;SDS011;2795;47.652;13.128;2023-06-04T13:59:22;14.10;;;6.73;;
5543;SDS011;2795;47.652;13.128;2023-06-04T14:01:49;15.90;;;6.20;;
5543;SDS011;2795;47.652;13.128;2023-06-04T14:04:16;14.27;;;6.47;;
5543;SDS011;2795;47.652;13.128;2023-06-04T14:06:43;10.53;;;5.17;;
5543;SDS011;2795;47.652;13.128;2023-06-04T14:09:10;7.90;;;4.10;;
5543;SDS011;2795;47.652;13.128;2023-06-04T14:11:39;6.87;;;4.60;;
5543;SDS011;2795;47.652;13.128;2023-06-04T14:14:07;6.20;;;4.27;;
5543;SDS011;2795;47.652;13.128;2023-06-04T14:16:35;8.30;;;4.63;;
5543;SDS011;2795;47.652;13.128;2023-06-04T14:19:02;7.23;;;4.43;;
5543;SDS011;2795;47.652;13.128;2023-06-04T14:21:30;9.03;;;4.80;;
5543;SDS011;2795;47.652;13.128;2023-06-04T14:23:57;8.70;;;4.40;;
5543;SDS011;2795;47.652;13.128;2023-06-04T14:26:24;17.13;;;5.37;;
5543;SDS011;2795;47.652;13.128;2023-06-04T14:28:51;13.00;;;5.60;;
5543;SDS011;2795;47.652;13.128;2023-06-04T14:31:18;13.00;;;5.63;;
5543;SDS011;2795;47.652;13.128;2023-06-04T14:33:45;8.87;;;5.00;;
5543;SDS011;2795;47.652;13.128;2023-06-04T14:36:12;11.53;;;5.30;;
5543;SDS011;2795;47.652;13.128;2023-06-04T14:38:39;8.47;;;4.80;;
5543;SDS011;2795;47.652;13.128;2023-06-04T14:41:07;10.50;;;5.00;;
5543;SDS011;2795;47.652;13.128;2023-06-04T14:43:34;13.03;;;5.60;;
5543;SDS011;2795;47.652;13.128;2023-06-04T14:46:01;8.73;;;4.63;;
5543;SDS011;2795;47.652;13.128;2023-06-04T14:48:29;11.83;;;5.40;;
5543;SDS011;2795;47.652;13.128;2023-06-04T14:50:56;12.87;;;4.90;;
5543;SDS011;2795;47.652;13.128;2023-06-04T14:53:24;10.80;;;4.83;;
5543;SDS011;2795;47.652;13.128;2023-06-04T14:55:51;17.47;;;5.93;;
5543;SDS011;2795;47.652;13.128;2023-06-04T14:58:19;15.97;;;5.87;;
5543;SDS011;2795;47.652;13.128;2023-06-04T15:00:47;8.63;;;4.90;;
5543;SDS011;2795;47.652;13.128;2023-06-04T15:03:14;11.50;;;5.03;;
5543;SDS011;2795;47.652;13.128;2023-06-04T15:05:42;10.67;;;4.90;;